Ansley, Nebraska
Current Conditions -  °F | °C
As of 5:53 PM on Wednesday 26 Nov 2014 (Local Time) from KBBW Reporting Station
Few Clouds Few Clouds  
Wind Chill: -6°   Ceiling: Unl
Heat Index: -3°   Visibility: 10mi
Dew Point: -8°   Wind: 6mph
Humidity: 69%   Direction: 350°N
Pressure: 30.32"   Gusts: NA
Location:  41.29°N, 99.38°W
Report Text: KBBW 262353Z AUTO 35005KT 10SM FEW120 M03/M08 A3032 RMK AO2 SLP296 T10281078 10000 21028 51018
Loading
Personal Weather Stations






























Interactive Weather Map New forecast layout! Learn more

10-Day Weather Forecast

Advertisements
Track Severe Weather on mobile